| time (UTC) | temp F | wind direction | speed knots | gust knots | rain 1hr in | rain 24hr in | rain mn in | humidity % | barometer mb |
| 20260506103044 | 62 | 0 | 0.0 | 1.7 | 0.00 | 0.00 | 0.00 | 94 | 1015.9 |
| 20260506101545 | 62 | 0 | 0.0 | 0.9 | 0.00 | 0.00 | 0.00 | 94 | 1015.7 |
| 20260506100047 | 62 | 0 | 0.0 | 0.9 | 0.00 | 0.00 | 0.00 | 93 | 1015.4 |
| 20260506094606 | 62 | 0 | 0.0 | 0.9 | 0.00 | 0.00 | 0.00 | 93 | 1015.7 |
| 20260506093044 | 62 | 0 | 0.0 | 0.9 | 0.00 | 0.00 | 0.00 | 93 | 1015.7 |
| 20260506091549 | 62 | 0 | 0.0 | 0.9 | 0.00 | 0.00 | 0.00 | 92 | 1015.9 |
| 20260506090045 | 62 | 0 | 0.0 | 0.0 | 0.00 | 0.00 | 0.00 | 92 | 1015.9 |
| 20260506084547 | 62 | 0 | 0.0 | 0.9 | 0.00 | 0.00 | 0.00 | 92 | 1016.0 |
| 20260506083045 | 62 | 0 | 0.0 | 0.9 | 0.00 | 0.00 | 0.00 | 92 | 1015.9 |
| 20260506081541 | 62 | 0 | 0.0 | 0.9 | 0.00 | 0.00 | 0.00 | 92 | 1015.8 |
| 20260506073050 | 63 | 0 | 0.0 | 0.9 | 0.00 | 0.00 | 0.00 | 91 | 1015.9 |
| 20260506071545 | 63 | 0 | 0.0 | 0.0 | 0.00 | 0.00 | 0.00 | 91 | 1015.6 |
| 20260506061541 | 63 | 0 | 0.0 | 0.0 | 0.00 | 0.00 | 0.00 | 90 | 1016.2 |
| 20260506044552 | 64 | 0 | 0.0 | 0.9 | 0.00 | 0.00 | 0.00 | 90 | 1016.9 |
| 20260506043044 | 64 | 0 | 0.0 | 0.9 | 0.00 | 0.00 | 0.00 | 90 | 1017.1 |
| 20260506041548 | 64 | 0 | 0.0 | 0.9 | 0.00 | 0.00 | 0.00 | 90 | 1017.3 |
| 20260506040057 | 64 | 0 | 0.0 | 1.7 | 0.00 | 0.00 | 0.00 | 89 | 1017.4 |
| 20260506034543 | 65 | 249 | 0.0 | 3.5 | 0.00 | 0.00 | 0.00 | 88 | 1017.2 |
| 20260506033046 | 65 | 0 | 0.0 | 0.9 | 0.00 | 0.00 | 0.00 | 87 | 1017.1 |
| 20260506031554 | 65 | 161 | 0.0 | 2.6 | 0.00 | 0.00 | 0.00 | 86 | 1017.1 |
| 20260506030044 | 65 | 0 | 0.0 | 2.6 | 0.00 | 0.00 | 0.00 | 84 | 1017.3 |
| 20260506024544 | 66 | 0 | 0.0 | 2.6 | 0.00 | 0.00 | 0.00 | 82 | 1017.2 |
| 20260506023043 | 66 | 0 | 0.0 | 0.9 | 0.00 | 0.00 | 0.00 | 81 | 1017.1 |
| 20260506021556 | 66 | 150 | 0.0 | 0.9 | 0.00 | 0.00 | 0.00 | 80 | 1017.2 |
| 20260506020045 | 67 | 0 | 0.0 | 0.9 | 0.00 | 0.00 | 0.00 | 79 | 1017.0 |
| 20260506014545 | 67 | 227 | 0.0 | 0.9 | 0.00 | 0.00 | 0.00 | 77 | 1016.8 |
| 20260506013048 | 67 | 0 | 0.0 | 3.5 | 0.00 | 0.00 | 0.00 | 76 | 1016.8 |
| 20260506011542 | 68 | 78 | 0.0 | 1.7 | 0.00 | 0.00 | 0.00 | 76 | 1016.7 |
| 20260506010045 | 68 | 294 | 0.0 | 2.6 | 0.00 | 0.00 | 0.00 | 75 | 1016.7 |
| 20260506004542 | 68 | 0 | 0.0 | 2.6 | 0.00 | 0.00 | 0.00 | 74 | 1016.6 |
| 20260506003045 | 69 | 0 | 0.0 | 3.5 | 0.00 | 0.00 | 0.00 | 73 | 1016.5 |
| 20260506001548 | 69 | 165 | 0.0 | 2.6 | 0.00 | 0.00 | 0.00 | 72 | 1016.4 |
| 20260506000047 | 70 | 238 | 0.0 | 2.6 | 0.00 | 0.00 | 0.00 | 71 | 1016.2 |
| 20260505234550 | 71 | 168 | 0.0 | 2.6 | 0.00 | 0.00 | 0.00 | 69 | 1016.1 |
| 20260505233043 | 72 | 175 | 0.0 | 2.6 | 0.00 | 0.00 | 0.00 | 66 | 1015.9 |
| 20260505231548 | 73 | 0 | 0.9 | 3.5 | 0.00 | 0.00 | 0.00 | 65 | 1015.6 |
| 20260505230041 | 75 | 0 | 0.9 | 4.3 | 0.00 | 0.00 | 0.00 | 64 | 1015.7 |
| 20260505224542 | 75 | 259 | 0.9 | 5.2 | 0.00 | 0.00 | 0.00 | 64 | 1015.6 |
| 20260505223052 | 75 | 227 | 0.0 | 3.5 | 0.00 | 0.00 | 0.00 | 65 | 1015.7 |
| 20260505221546 | 74 | 121 | 0.9 | 5.2 | 0.00 | 0.00 | 0.00 | 66 | 1015.8 |
| 20260505220043 | 74 | 116 | 0.9 | 10.4 | 0.00 | 0.00 | 0.00 | 65 | 1015.6 |
| 20260505214549 | 75 | 225 | 0.9 | 4.3 | 0.00 | 0.00 | 0.00 | 64 | 1015.5 |
| 20260505213048 | 76 | 0 | 0.9 | 5.2 | 0.00 | 0.00 | 0.00 | 62 | 1015.4 |
| 20260505211542 | 77 | 166 | 0.0 | 5.2 | 0.00 | 0.00 | 0.00 | 62 | 1015.4 |
| 20260505210044 | 77 | 275 | 0.9 | 3.5 | 0.00 | 0.00 | 0.00 | 61 | 1015.3 |
| 20260505204547 | 78 | 206 | 0.9 | 7.0 | 0.00 | 0.00 | 0.00 | 61 | 1015.3 |
| 20260505203041 | 78 | 111 | 0.9 | 6.1 | 0.00 | 0.00 | 0.00 | 60 | 1015.4 |
| 20260505201546 | 79 | 92 | 1.7 | 6.1 | 0.00 | 0.00 | 0.00 | 58 | 1015.7 |
| 20260505200049 | 79 | 144 | 0.9 | 3.5 | 0.00 | 0.00 | 0.00 | 56 | 1016.0 |
| 20260505194542 | 80 | 59 | 0.9 | 7.0 | 0.00 | 0.00 | 0.00 | 55 | 1016.2 |
| 20260505193042 | 80 | 166 | 0.9 | 6.1 | 0.00 | 0.00 | 0.00 | 53 | 1016.1 |
| 20260505191543 | 79 | 0 | 1.7 | 7.0 | 0.00 | 0.00 | 0.00 | 50 | 1016.4 |
| 20260505190046 | 80 | 278 | 0.0 | 4.3 | 0.00 | 0.00 | 0.00 | 52 | 1016.6 |
| 20260505184545 | 79 | 100 | 0.9 | 6.1 | 0.00 | 0.00 | 0.00 | 52 | 1016.7 |
| 20260505183047 | 79 | 129 | 0.0 | 5.2 | 0.00 | 0.00 | 0.00 | 53 | 1016.8 |
| 20260505181549 | 78 | 178 | 0.0 | 5.2 | 0.00 | 0.00 | 0.00 | 55 | 1016.8 |
| 20260505180045 | 78 | 153 | 0.0 | 4.3 | 0.00 | 0.00 | 0.00 | 55 | 1017.0 |
| 20260505174553 | 78 | 217 | 0.9 | 4.3 | 0.00 | 0.00 | 0.00 | 54 | 1016.8 |
| 20260505173046 | 78 | 126 | 0.0 | 4.3 | 0.00 | 0.00 | 0.00 | 52 | 1017.0 |
| 20260505171551 | 77 | 219 | 0.9 | 6.1 | 0.00 | 0.00 | 0.00 | 52 | 1017.2 |
| 20260505170047 | 76 | 197 | 0.9 | 3.5 | 0.00 | 0.00 | 0.00 | 55 | 1017.4 |
| 20260505164556 | 76 | 0 | 0.9 | 3.5 | 0.00 | 0.00 | 0.00 | 55 | 1017.5 |
| 20260505163051 | 76 | 228 | 0.9 | 3.5 | 0.00 | 0.00 | 0.00 | 55 | 1017.6 |
| 20260505161546 | 75 | 171 | 0.0 | 5.2 | 0.00 | 0.00 | 0.00 | 56 | 1017.8 |
| 20260505153044 | 73 | 180 | 0.9 | 3.5 | 0.00 | 0.00 | 0.00 | 59 | 1018.0 |
| 20260505151546 | 72 | 229 | 0.0 | 5.2 | 0.00 | 0.00 | 0.00 | 62 | 1018.0 |
| 20260505130104 | 66 | 223 | 0.0 | 2.6 | 0.00 | 0.00 | 0.00 | 74 | 1018.1 |
| 20260505124553 | 65 | 226 | 0.9 | 4.3 | 0.00 | 0.00 | 0.00 | 76 | 1018.2 |
| 20260505123047 | 64 | 224 | 0.0 | 2.6 | 0.00 | 0.00 | 0.00 | 78 | 1018.2 |
| 20260505121553 | 63 | 225 | 0.9 | 3.5 | 0.00 | 0.00 | 0.00 | 79 | 1018.1 |
| 20260505114547 | 62 | 225 | 0.0 | 2.6 | 0.00 | 0.00 | 0.00 | 81 | 1018.1 |
| 20260505113051 | 61 | 235 | 0.0 | 2.6 | 0.00 | 0.00 | 0.00 | 83 | 1018.0 |
| 20260505111542 | 60 | 0 | 0.0 | 1.7 | 0.00 | 0.00 | 0.00 | 83 | 1017.9 |